Pawcatuck, Connecticut
Current Conditions -  °F | °C
As of 6:53 AM on Friday 24 Oct 2014 (Local Time) from KWST Reporting Station
Overcast Overcast  
Wind Chill: 51°   Ceiling: 1800
Heat Index: 51°   Visibility: 10mi
Dew Point: 46°   Wind: 7mph
Humidity: 83%   Direction: NA
Pressure: 29.71"   Gusts: NA
Location:  41.38°N, 71.84°W
Report Text: KWST 241053Z AUTO VRB06KT 10SM OVC018 11/08 A2971 RMK AO2 SLP061 T01060078
Loading
Personal Weather Stations






























Interactive Weather Map
Tropical Storm Tracking
New forecast layout! Learn more

10-Day Weather Forecast

Advertisements
Track Severe Weather on mobile